Kirishima Maru No.15 — JM6546 — position and weather

sailwx.info

Track history (hours):
 
Tides and Currents Weather Stations Pressure Air Temp Water Temp Dewpoint Dewpoint Depression Visibility Wind Speed Wind Dir Waves Ship Positions

Kirishima Maru No.15

Last reported at 2017-Dec-18 10:57 UTC. Time now 2017-Dec-18 11:12 UTC.
Position N 35°31' E 139°50'.

Length 101 m; draft 6.5 m.

Type: Tanker. MMSI: 431600872.

Date/timePositionNaut miles runAvg speedWind from/ knotsBaromVisibWave heightAir tempDewpointWater temp
2017-Dec-18 10:57N 35°31' E 139°50'4 9.7
2017-Dec-18 10:30N 35°31' E 139°55'713.0
2017-Dec-18 10:00N 35°32' E 140°03'0 0.0
2017-Dec-18 00:30N 35°32' E 140°03'1 2.2
2017-Dec-18 00:01N 35°33' E 140°03'2 4.6
2017-Dec-17 23:30N 35°35' E 140°03'0 0.1
2017-Dec-17 23:00N 35°35' E 140°03'0 0.0
2017-Dec-17 22:30N 35°35' E 140°03'0 0.0
2017-Dec-17 21:57N 35°35' E 140°03'0 0.1
2017-Dec-17 21:30N 35°35' E 140°03'0 0.1
2017-Dec-17 21:00N 35°35' E 140°03'0 0.0
2017-Dec-17 20:30N 35°35' E 140°03'0 0.1
2017-Dec-17 20:00N 35°35' E 140°03'0 0.0
2017-Dec-17 19:30N 35°35' E 140°03'0 0.1
2017-Dec-17 19:00N 35°35' E 140°03'0 0.0
2017-Dec-17 18:30N 35°35' E 140°03'0 0.0
2017-Dec-17 18:00N 35°35' E 140°03'0 0.0
2017-Dec-17 17:30N 35°35' E 140°03'0 0.0
2017-Dec-17 17:00N 35°35' E 140°03'0 0.0
2017-Dec-17 16:30N 35°35' E 140°03'0 0.0
2017-Dec-17 16:00N 35°35' E 140°03'0 0.0
2017-Dec-17 15:30N 35°35' E 140°03'0 0.0
2017-Dec-17 15:00N 35°35' E 140°03'0 0.0
2017-Dec-17 14:30N 35°35' E 140°03'0 0.0
2017-Dec-17 14:00N 35°35' E 140°03'0 0.0
2017-Dec-17 13:30N 35°35' E 140°03'0 0.0
2017-Dec-17 13:00N 35°35' E 140°03'0 0.1
2017-Dec-17 12:30N 35°35' E 140°03'2 3.4
2017-Dec-17 11:58N 35°36' E 140°05'0 0.0
2017-Dec-17 11:28N 35°36' E 140°05'0 0.0
2017-Dec-17 10:58N 35°36' E 140°05'0 0.0
2017-Dec-17 10:28N 35°36' E 140°05'0 0.0
2017-Dec-17 09:58N 35°36' E 140°05'0 0.0
2017-Dec-17 09:28N 35°36' E 140°05'0 0.0
2017-Dec-17 08:58N 35°36' E 140°05'0 0.0
2017-Dec-17 08:28N 35°36' E 140°05'0 0.0
2017-Dec-17 07:58N 35°36' E 140°05'0 0.0
2017-Dec-17 07:28N 35°36' E 140°05'0 0.0
2017-Dec-17 06:58N 35°36' E 140°05'0 0.0
2017-Dec-17 06:28N 35°36' E 140°05'1 1.2
2017-Dec-17 06:00N 35°36' E 140°04'1 1.7
2017-Dec-17 05:30N 35°35' E 140°03'0 0.0
2017-Dec-17 05:00N 35°35' E 140°03'0 0.1
2017-Dec-17 04:30N 35°35' E 140°03'0 0.1
2017-Dec-17 04:00N 35°35' E 140°03'0 0.1
2017-Dec-17 03:30N 35°35' E 140°03'0 0.1
2017-Dec-17 03:00N 35°35' E 140°03'0 0.0
2017-Dec-17 02:30N 35°35' E 140°03'0 0.0
2017-Dec-17 02:00N 35°35' E 140°03'0 0.0
2017-Dec-17 01:30N 35°35' E 140°03'0 0.0
2017-Dec-17 01:00N 35°35' E 140°03'0 0.0
2017-Dec-17 00:30N 35°35' E 140°03'0 0.0
2017-Dec-17 00:00N 35°35' E 140°03'0 0.0
2017-Dec-16 23:30N 35°35' E 140°03'2 3.5
2017-Dec-16 23:00N 35°35' E 140°01'713.1
2017-Dec-16 22:30N 35°31' E 139°55'612.6
2017-Dec-16 22:00N 35°26' E 139°49'612.3
2017-Dec-16 21:30N 35°21' E 139°45'611.5
2017-Dec-16 21:00N 35°16' E 139°47'612.6
2017-Dec-16 20:30N 35°09' E 139°45'713.1
2017-Dec-16 20:01N 35°04' E 139°41'714.1
2017-Dec-16 19:31N 34°59' E 139°34'714.7
2017-Dec-16 19:00N 34°54' E 139°28'1114.6
2017-Dec-16 18:16N 34°48' E 139°18'414.0
2017-Dec-16 18:00N 34°45' E 139°14'713.7
2017-Dec-16 17:30N 34°41' E 139°08'713.5
2017-Dec-16 17:00N 34°36' E 139°02'713.1
2017-Dec-16 16:30N 34°33' E 138°55'814.9
2017-Dec-16 15:58N 34°33' E 138°45'614.2
2017-Dec-16 15:30N 34°32' E 138°38'714.2
2017-Dec-16 15:00N 34°33' E 138°29'814.6
2017-Dec-16 14:29N 34°32' E 138°20'1015.4
2017-Dec-16 13:51N 34°32' E 138°08'514.6
2017-Dec-16 13:28N 34°32' E 138°01'3614.0
2017-Dec-16 10:53N 34°32' E 137°17'1513.5
2017-Dec-16 09:47N 34°34' E 136°59'814.0
2017-Dec-16 09:11N 34°39' E 136°51'313.7
2017-Dec-16 09:00N 34°41' E 136°49'714.0
2017-Dec-16 08:31N 34°48' E 136°46'713.7
2017-Dec-16 08:00N 34°54' E 136°43'5 9.5
2017-Dec-16 07:27N 34°58' E 136°39'0 0.0
2017-Dec-16 06:57N 34°58' E 136°39'0 0.0
2017-Dec-16 06:27N 34°58' E 136°39'0 0.0
2017-Dec-16 05:57N 34°58' E 136°39'0 0.0
2017-Dec-16 05:21N 34°58' E 136°39'0 0.0
2017-Dec-16 05:00N 34°58' E 136°39'0 0.0
2017-Dec-16 04:27N 34°58' E 136°39'0 0.0
2017-Dec-16 03:57N 34°58' E 136°39'0 0.0
2017-Dec-16 03:27N 34°58' E 136°39'0 0.0
2017-Dec-16 02:57N 34°58' E 136°39'0 0.0
2017-Dec-16 02:27N 34°58' E 136°39'0 0.0
2017-Dec-16 01:57N 34°58' E 136°39'0 0.0
2017-Dec-16 01:27N 34°58' E 136°39'0 0.0
2017-Dec-16 01:00N 34°58' E 136°39'0 0.0
2017-Dec-16 00:27N 34°58' E 136°39'0 0.0
2017-Dec-15 23:57N 34°58' E 136°39'0 0.0
2017-Dec-15 23:27N 34°58' E 136°39'0 0.1
2017-Dec-15 23:00N 34°58' E 136°39'1 1.9
2017-Dec-15 22:25N 34°58' E 136°40'0 0.0
2017-Dec-15 21:58N 34°58' E 136°40'0 0.0
2017-Dec-15 21:28N 34°58' E 136°40'0 0.0
2017-Dec-15 20:58N 34°58' E 136°40'0 0.0
2017-Dec-15 20:25N 34°58' E 136°40'0 0.0
2017-Dec-15 19:55N 34°58' E 136°40'0 0.0
2017-Dec-15 19:28N 34°58' E 136°40'0 0.0
2017-Dec-15 18:58N 34°58' E 136°40'0 0.1
2017-Dec-15 18:28N 34°58' E 136°40'3 6.1
2017-Dec-15 18:00N 34°55' E 136°42'714.4
2017-Dec-15 17:30N 34°49' E 136°46'714.5
2017-Dec-15 17:01N 34°43' E 136°50'714.6
2017-Dec-15 16:30N 34°37' E 136°56'1214.1
2017-Dec-15 15:38N 34°33' E 137°10'214.4
2017-Dec-15 15:30N 34°33' E 137°12'714.6
2017-Dec-15 15:00N 34°33' E 137°21'2914.3
2017-Dec-15 12:59N 34°33' E 137°56'713.7
2017-Dec-15 12:28N 34°33' E 138°05'713.1
2017-Dec-15 11:58N 34°33' E 138°13'613.4
2017-Dec-15 11:30N 34°32' E 138°21'713.6
2017-Dec-15 11:00N 34°33' E 138°29'612.6
2017-Dec-15 10:30N 34°33' E 138°36'712.4
2017-Dec-15 09:57N 34°33' E 138°45'613.4
2017-Dec-15 09:31N 34°33' E 138°52'612.1
2017-Dec-15 09:00N 34°34' E 138°59'714.0
2017-Dec-15 08:30N 34°39' E 139°05'714.3
2017-Dec-15 07:59N 34°44' E 139°12'714.0
2017-Dec-15 07:30N 34°49' E 139°18'714.2
2017-Dec-15 07:00N 34°54' E 139°24'713.7
2017-Dec-15 06:30N 34°58' E 139°30'714.0
2017-Dec-15 06:01N 35°03' E 139°37'714.7
2017-Dec-15 05:30N 35°08' E 139°43'713.8
2017-Dec-15 05:00N 35°14' E 139°46'612.7
2017-Dec-15 04:30N 35°20' E 139°43'713.5
2017-Dec-15 04:00N 35°27' E 139°45'6 3.8
2017-Dec-15 02:29N 35°32' E 139°48'0 0.0
2017-Dec-15 00:59N 35°32' E 139°48'0 0.0
2017-Dec-15 00:29N 35°32' E 139°48'2 0.4
2017-Dec-14 18:30N 35°31' E 139°50'0 0.0
2017-Dec-14 18:00N 35°31' E 139°50'0 0.1
2017-Dec-14 17:30N 35°31' E 139°50'0 0.1
2017-Dec-14 17:00N 35°31' E 139°50'0 0.0
2017-Dec-14 16:31N 35°31' E 139°50'0 0.0
2017-Dec-14 16:00N 35°31' E 139°50'0 0.1
2017-Dec-14 15:00N 35°31' E 139°50'0 0.0
2017-Dec-14 14:31N 35°31' E 139°50'0 0.0
2017-Dec-14 14:01N 35°31' E 139°50'0 0.0
2017-Dec-14 13:30N 35°31' E 139°50'0 0.0
2017-Dec-14 13:00N 35°31' E 139°50'0 0.0
2017-Dec-14 12:30N 35°31' E 139°50'0 0.1
2017-Dec-14 12:00N 35°31' E 139°50'0 0.0
2017-Dec-14 11:30N 35°31' E 139°50'0 0.0
2017-Dec-14 11:00N 35°31' E 139°50'2 3.4
2017-Dec-14 10:30N 35°31' E 139°52'713.5
2017-Dec-14 10:00N 35°33' E 140°00'4 7.2
2017-Dec-14 09:30N 35°33' E 140°05'0 0.0
2017-Dec-14 09:00N 35°33' E 140°05'0 0.0
2017-Dec-14 08:30N 35°33' E 140°05'0 0.0
2017-Dec-14 08:00N 35°33' E 140°05'0 0.0
2017-Dec-14 07:27N 35°33' E 140°05'0 0.0
2017-Dec-14 06:57N 35°33' E 140°05'0 0.0
2017-Dec-14 06:27N 35°33' E 140°05'0 0.0
2017-Dec-14 06:00N 35°33' E 140°05'0 0.0
2017-Dec-14 05:27N 35°33' E 140°05'0 0.0
2017-Dec-14 05:00N 35°33' E 140°05'0 0.0
2017-Dec-14 04:30N 35°33' E 140°05'0 0.0
2017-Dec-14 03:57N 35°33' E 140°05'0 0.1
2017-Dec-14 03:30N 35°33' E 140°05'4 8.2
2017-Dec-14 03:00N 35°33' E 139°60'714.3
2017-Dec-14 02:29N 35°31' E 139°51'2 4.0
2017-Dec-14 01:52N 35°32' E 139°48'0 0.0
2017-Dec-14 01:28N 35°32' E 139°48'0 0.0
2017-Dec-14 00:58N 35°32' E 139°48'0 0.0
2017-Dec-14 00:28N 35°32' E 139°48'0 0.0
2017-Dec-13 23:55N 35°32' E 139°48'0 0.0
2017-Dec-13 23:28N 35°32' E 139°48'0 0.0
2017-Dec-13 22:58N 35°32' E 139°48'0 0.2
2017-Dec-13 22:30N 35°32' E 139°48'2 3.9
2017-Dec-13 22:00N 35°31' E 139°50'0 0.3
2017-Dec-13 21:26N 35°31' E 139°50'0 0.0
2017-Dec-13 20:59N 35°31' E 139°50'0 0.0
2017-Dec-13 20:29N 35°31' E 139°50'0 0.0
2017-Dec-13 19:59N 35°31' E 139°50'0 0.0
2017-Dec-13 19:29N 35°31' E 139°50'0 0.0
2017-Dec-13 18:59N 35°31' E 139°50'0 0.0
2017-Dec-13 18:23N 35°31' E 139°50'0 0.0
2017-Dec-13 17:59N 35°31' E 139°50'0 0.0
2017-Dec-13 17:17N 35°31' E 139°50'0 0.0
2017-Dec-13 16:59N 35°31' E 139°50'0 0.0
2017-Dec-13 16:29N 35°31' E 139°50'0 0.0
2017-Dec-13 15:59N 35°31' E 139°50'0 0.0
2017-Dec-13 15:26N 35°31' E 139°50'0 0.0
2017-Dec-13 14:59N 35°31' E 139°50'0 0.0
2017-Dec-13 14:29N 35°31' E 139°50'0 0.0
2017-Dec-13 13:56N 35°31' E 139°50'0 0.0
2017-Dec-13 13:20N 35°31' E 139°50'0 0.2
2017-Dec-13 12:50N 35°31' E 139°50'3 8.8
2017-Dec-13 12:29N 35°31' E 139°54'613.5
2017-Dec-13 12:00N 35°33' E 140°02'2 4.6
2017-Dec-13 11:29N 35°33' E 140°05'0 0.0
2017-Dec-13 10:59N 35°33' E 140°05'0 0.0
2017-Dec-13 10:29N 35°33' E 140°05'0 0.0
2017-Dec-13 09:59N 35°33' E 140°05'0 0.0
2017-Dec-13 09:29N 35°33' E 140°05'0 0.0
2017-Dec-13 08:59N 35°33' E 140°05'0 0.0
2017-Dec-13 08:29N 35°33' E 140°05'0 0.0
2017-Dec-13 07:59N 35°33' E 140°05'0 0.0
2017-Dec-13 07:29N 35°33' E 140°05'0 0.0
2017-Dec-13 06:59N 35°33' E 140°05'0 0.0
2017-Dec-13 06:29N 35°33' E 140°05'0 0.0
2017-Dec-13 05:59N 35°33' E 140°05'1 1.6
2017-Dec-13 05:30N 35°33' E 140°04'3 5.0
2017-Dec-13 04:58N 35°36' E 140°05'0 0.0
2017-Dec-13 04:28N 35°36' E 140°05'0 0.0
2017-Dec-13 03:58N 35°36' E 140°05'0 0.0
2017-Dec-13 03:28N 35°36' E 140°05'0 0.0
2017-Dec-13 02:58N 35°36' E 140°05'0 0.0
2017-Dec-13 02:28N 35°36' E 140°05'0 0.0
2017-Dec-13 01:58N 35°36' E 140°05'0 0.0
2017-Dec-13 01:28N 35°36' E 140°05'0 0.0
2017-Dec-13 00:58N 35°36' E 140°05'0 0.0
2017-Dec-13 00:28N 35°36' E 140°05'0 0.0
2017-Dec-12 23:58N 35°36' E 140°05'0 0.0
2017-Dec-12 23:28N 35°36' E 140°05'1 3.1
2017-Dec-12 23:01N 35°35' E 140°03'0 0.2
2017-Dec-12 22:28N 35°35' E 140°03'0 0.0
2017-Dec-12 21:58N 35°35' E 140°03'0 0.0
2017-Dec-12 21:28N 35°35' E 140°03'0 0.0
2017-Dec-12 20:58N 35°35' E 140°03'0 0.0
2017-Dec-12 20:28N 35°35' E 140°03'0 0.0
2017-Dec-12 19:58N 35°35' E 140°03'0 0.0
2017-Dec-12 19:28N 35°35' E 140°03'0 0.0
2017-Dec-12 18:58N 35°35' E 140°03'0 0.0
2017-Dec-12 18:25N 35°35' E 140°03'0 0.0
2017-Dec-12 17:58N 35°35' E 140°03'0 0.0
2017-Dec-12 17:28N 35°35' E 140°03'0 0.0
2017-Dec-12 16:58N 35°35' E 140°03'0 0.1
2017-Dec-12 16:28N 35°35' E 140°03'0 0.0
2017-Dec-12 15:58N 35°35' E 140°03'0 0.0
2017-Dec-12 15:28N 35°35' E 140°03'0 0.0
2017-Dec-12 14:58N 35°35' E 140°03'0 0.0
2017-Dec-12 14:28N 35°35' E 140°03'0 0.0
2017-Dec-12 13:58N 35°35' E 140°03'0 0.0
2017-Dec-12 13:28N 35°35' E 140°03'0 0.0
2017-Dec-12 12:58N 35°35' E 140°03'0 0.1
2017-Dec-12 12:28N 35°35' E 140°03'2 4.2
2017-Dec-12 12:00N 35°33' E 140°03'2 0.2
2017-Dec-12 05:49N 35°32' E 140°03'1 3.1
2017-Dec-12 05:30N 35°33' E 140°03'3 5.2
2017-Dec-12 05:01N 35°35' E 140°02'0 0.2
2017-Dec-12 04:30N 35°35' E 140°02'0 0.1
2017-Dec-12 04:00N 35°35' E 140°02'0 0.0
2017-Dec-12 03:31N 35°35' E 140°02'0 0.0
2017-Dec-12 03:01N 35°35' E 140°02'0 0.0
2017-Dec-12 02:31N 35°35' E 140°02'0 0.0
2017-Dec-12 02:01N 35°35' E 140°02'0 0.0
2017-Dec-12 01:30N 35°35' E 140°02'0 0.0
2017-Dec-12 01:01N 35°35' E 140°02'0 0.0
2017-Dec-12 00:30N 35°35' E 140°02'0 0.0
2017-Dec-12 00:00N 35°35' E 140°02'0 0.0
2017-Dec-11 23:31N 35°35' E 140°02'0 0.0
2017-Dec-11 23:01N 35°35' E 140°02'0 0.0
2017-Dec-11 22:31N 35°35' E 140°02'0 0.0
2017-Dec-11 22:01N 35°35' E 140°02'0 0.0
2017-Dec-11 21:30N 35°35' E 140°02'0 0.0
2017-Dec-11 21:01N 35°35' E 140°02'0 0.0
2017-Dec-11 20:30N 35°35' E 140°02'0 0.0
2017-Dec-11 20:00N 35°35' E 140°02'0 0.0
2017-Dec-11 19:30N 35°35' E 140°02'0 0.0
2017-Dec-11 19:01N 35°35' E 140°02'0 0.0
2017-Dec-11 18:30N 35°35' E 140°02'0 0.0
2017-Dec-11 18:00N 35°35' E 140°02'0 0.0
2017-Dec-11 17:30N 35°35' E 140°02'0 0.0
2017-Dec-11 17:00N 35°35' E 140°02'0 0.0
2017-Dec-11 16:31N 35°35' E 140°02'0 0.0
2017-Dec-11 16:01N 35°35' E 140°02'0 0.0
2017-Dec-11 15:30N 35°35' E 140°02'0 0.0
2017-Dec-11 15:01N 35°35' E 140°02'0 0.0
2017-Dec-11 14:30N 35°35' E 140°02'0 0.0
2017-Dec-11 14:00N 35°35' E 140°02'0 0.0
2017-Dec-11 13:31N 35°35' E 140°02'0 0.0
2017-Dec-11 13:00N 35°35' E 140°02'0 0.0
2017-Dec-11 12:31N 35°35' E 140°02'0 0.0
2017-Dec-11 12:01N 35°35' E 140°02'0 0.0
2017-Dec-11 11:31N 35°35' E 140°02'0 0.0
2017-Dec-11 11:00N 35°35' E 140°02'0 0.0
2017-Dec-11 10:31N 35°35' E 140°02'0 0.0
2017-Dec-11 10:00N 35°35' E 140°02'0 0.0
2017-Dec-11 09:31N 35°35' E 140°02'0 0.1
2017-Dec-11 09:01N 35°35' E 140°02'0 0.1
2017-Dec-11 08:31N 35°35' E 140°02'0 0.0
2017-Dec-11 08:01N 35°35' E 140°02'0 0.1
2017-Dec-11 07:31N 35°35' E 140°02'0 0.0
2017-Dec-11 07:00N 35°35' E 140°02'0 0.1
2017-Dec-11 06:30N 35°35' E 140°02'0 0.1
2017-Dec-11 05:59N 35°35' E 140°02'0 0.1
2017-Dec-11 05:29N 35°35' E 140°02'0 0.1
2017-Dec-11 04:59N 35°35' E 140°02'0 0.2
2017-Dec-11 04:30N 35°35' E 140°02'2 3.6
2017-Dec-11 03:58N 35°36' E 140°05'0 0.0
2017-Dec-11 03:28N 35°36' E 140°05'0 0.0
2017-Dec-11 02:58N 35°36' E 140°05'0 0.0
2017-Dec-11 02:28N 35°36' E 140°05'0 0.0
2017-Dec-11 01:58N 35°36' E 140°05'0 0.0
2017-Dec-11 01:28N 35°36' E 140°05'0 0.0
2017-Dec-11 00:55N 35°36' E 140°05'0 0.0
2017-Dec-11 00:25N 35°36' E 140°05'0 0.0
2017-Dec-10 23:55N 35°36' E 140°05'0 0.0
2017-Dec-10 23:28N 35°36' E 140°05'0 0.0
2017-Dec-10 22:58N 35°36' E 140°05'0 0.0
2017-Dec-10 22:30N 35°36' E 140°05'2 4.0
2017-Dec-10 22:01N 35°35' E 140°02'4 8.6
2017-Dec-10 21:30N 35°33' E 139°58'0 0.0
2017-Dec-10 21:00N 35°33' E 139°58'0 0.1
2017-Dec-10 20:30N 35°33' E 139°58'0 0.0
2017-Dec-10 20:00N 35°33' E 139°58'0 0.1
2017-Dec-10 19:29N 35°33' E 139°58'0 0.0
2017-Dec-10 19:00N 35°33' E 139°58'0 0.0
2017-Dec-10 18:29N 35°33' E 139°58'0 0.0
2017-Dec-10 18:00N 35°33' E 139°58'0 0.0
2017-Dec-10 17:29N 35°33' E 139°58'0 0.0
2017-Dec-10 17:00N 35°33' E 139°58'0 0.0
2017-Dec-10 16:30N 35°33' E 139°58'0 0.0
2017-Dec-10 16:00N 35°33' E 139°58'0 0.0
2017-Dec-10 15:30N 35°33' E 139°58'0 0.0
2017-Dec-10 14:59N 35°33' E 139°58'0 0.0
2017-Dec-10 14:25N 35°33' E 139°58'0 0.0
2017-Dec-10 13:57N 35°33' E 139°58'0 0.0
2017-Dec-10 13:30N 35°33' E 139°58'0 0.0
2017-Dec-10 13:00N 35°33' E 139°58'0 0.0
2017-Dec-10 12:30N 35°33' E 139°58'0 0.0
2017-Dec-10 11:59N 35°33' E 139°58'0 0.1
2017-Dec-10 11:29N 35°33' E 139°58'4 8.2
2017-Dec-10 11:00N 35°32' E 140°02'1 0.2
2017-Dec-10 04:53N 35°32' E 140°03'2 5.6
2017-Dec-10 04:31N 35°34' E 140°04'2 3.8
2017-Dec-10 03:59N 35°36' E 140°05'0 0.0
2017-Dec-10 03:29N 35°36' E 140°05'0 0.0
2017-Dec-10 02:59N 35°36' E 140°05'0 0.0
2017-Dec-10 02:29N 35°36' E 140°05'0 0.0
2017-Dec-10 01:59N 35°36' E 140°05'0 0.0
2017-Dec-10 01:29N 35°36' E 140°05'0 0.0
2017-Dec-10 00:59N 35°36' E 140°05'0 0.0
2017-Dec-10 00:29N 35°36' E 140°05'0 0.0
2017-Dec-09 23:59N 35°36' E 140°05'0 0.0
2017-Dec-09 23:26N 35°36' E 140°05'0 0.0
2017-Dec-09 22:59N 35°36' E 140°05'0 0.0
2017-Dec-09 22:30N 35°36' E 140°05'1 2.8
2017-Dec-09 22:00N 35°35' E 140°03'0 0.2
2017-Dec-09 21:29N 35°35' E 140°03'0 0.0
2017-Dec-09 21:00N 35°35' E 140°03'0 0.0
2017-Dec-09 20:30N 35°35' E 140°03'0 0.0
2017-Dec-09 20:00N 35°35' E 140°03'0 0.0
2017-Dec-09 19:30N 35°35' E 140°03'0 0.0
2017-Dec-09 19:00N 35°35' E 140°03'0 0.0
2017-Dec-09 18:30N 35°35' E 140°03'0 0.0
2017-Dec-09 18:00N 35°35' E 140°03'0 0.0
2017-Dec-09 17:30N 35°35' E 140°03'0 0.0
2017-Dec-09 17:00N 35°35' E 140°03'0 0.0
2017-Dec-09 16:30N 35°35' E 140°03'0 0.1
2017-Dec-09 16:00N 35°35' E 140°03'0 0.0
2017-Dec-09 15:30N 35°35' E 140°03'0 0.1
2017-Dec-09 15:00N 35°35' E 140°03'0 0.1
2017-Dec-09 14:30N 35°35' E 140°03'0 0.0
2017-Dec-09 14:00N 35°35' E 140°03'0 0.0
2017-Dec-09 13:30N 35°35' E 140°03'0 0.0
2017-Dec-09 13:00N 35°35' E 140°03'0 0.0
2017-Dec-09 12:30N 35°35' E 140°03'0 0.0
2017-Dec-09 12:00N 35°35' E 140°03'0 0.0
2017-Dec-09 11:30N 35°35' E 140°03'0 0.0
2017-Dec-09 11:00N 35°35' E 140°03'0 0.0
2017-Dec-09 10:30N 35°35' E 140°03'0 0.1
2017-Dec-09 10:00N 35°35' E 140°03'3 0.5
2017-Dec-09 03:34N 35°32' E 140°03'0 0.1
2017-Dec-09 03:30N 35°32' E 140°03'1 2.2
2017-Dec-09 03:01N 35°32' E 140°02'0 0.3
2017-Dec-09 02:31N 35°32' E 140°02'0 0.0
2017-Dec-09 02:00N 35°32' E 140°02'0 0.0
2017-Dec-09 01:27N 35°32' E 140°02'0 0.0
2017-Dec-09 01:00N 35°32' E 140°02'0 0.0
2017-Dec-09 00:27N 35°32' E 140°02'0 0.0
2017-Dec-08 23:57N 35°32' E 140°02'0 0.0
2017-Dec-08 23:26N 35°32' E 140°02'0 0.0
2017-Dec-08 22:57N 35°32' E 140°02'0 0.0
2017-Dec-08 22:27N 35°32' E 140°02'0 0.0
2017-Dec-08 21:57N 35°32' E 140°02'1 1.2
2017-Dec-08 21:30N 35°32' E 140°02'5 8.6
2017-Dec-08 20:58N 35°36' E 140°06'0 0.0
2017-Dec-08 20:28N 35°36' E 140°06'0 0.0
2017-Dec-08 19:58N 35°36' E 140°06'0 0.0
2017-Dec-08 19:28N 35°36' E 140°06'0 0.0
2017-Dec-08 18:58N 35°36' E 140°06'0 0.0
2017-Dec-08 18:28N 35°36' E 140°06'0 0.0
2017-Dec-08 17:58N 35°36' E 140°06'0 0.0
2017-Dec-08 17:28N 35°36' E 140°06'0 0.0
2017-Dec-08 16:55N 35°36' E 140°06'0 0.0
2017-Dec-08 16:28N 35°36' E 140°06'0 0.0
2017-Dec-08 15:58N 35°36' E 140°06'0 0.0
2017-Dec-08 15:28N 35°36' E 140°06'0 0.0
2017-Dec-08 14:58N 35°36' E 140°06'0 0.0
2017-Dec-08 14:28N 35°36' E 140°06'0 0.0
2017-Dec-08 13:58N 35°36' E 140°06'0 0.0
2017-Dec-08 13:28N 35°36' E 140°06'0 0.0
2017-Dec-08 12:58N 35°36' E 140°06'0 0.0
2017-Dec-08 12:28N 35°36' E 140°06'0 0.0
2017-Dec-08 11:58N 35°36' E 140°06'0 0.0
2017-Dec-08 11:28N 35°36' E 140°06'0 0.0
2017-Dec-08 10:58N 35°36' E 140°06'  
Track history (hours):
 
Tides and Currents Weather Stations Pressure Air Temp Water Temp Dewpoint Dewpoint Depression Visibility Wind Speed Wind Dir Waves Ship Positions

Kirishima Maru No.15

Last reported at 2017-Dec-18 10:57 UTC. Time now 2017-Dec-18 11:12 UTC.
Position N 35°31' E 139°50'.

Length 101 m; draft 6.5 m.

Type: Tanker. MMSI: 431600872.

Date/timePositionNaut miles runAvg speedWind from/ knotsBaromVisibWave heightAir tempDewpointWater temp
2017-Dec-18 10:57N 35°31' E 139°50'4 9.7
2017-Dec-18 10:30N 35°31' E 139°55'713.0
2017-Dec-18 10:00N 35°32' E 140°03'0 0.0
2017-Dec-18 00:30N 35°32' E 140°03'1 2.2
2017-Dec-18 00:01N 35°33' E 140°03'2 4.6
2017-Dec-17 23:30N 35°35' E 140°03'0 0.1
2017-Dec-17 23:00N 35°35' E 140°03'0 0.0
2017-Dec-17 22:30N 35°35' E 140°03'0 0.0
2017-Dec-17 21:57N 35°35' E 140°03'0 0.1
2017-Dec-17 21:30N 35°35' E 140°03'0 0.1
2017-Dec-17 21:00N 35°35' E 140°03'0 0.0
2017-Dec-17 20:30N 35°35' E 140°03'0 0.1
2017-Dec-17 20:00N 35°35' E 140°03'0 0.0
2017-Dec-17 19:30N 35°35' E 140°03'0 0.1
2017-Dec-17 19:00N 35°35' E 140°03'0 0.0
2017-Dec-17 18:30N 35°35' E 140°03'0 0.0
2017-Dec-17 18:00N 35°35' E 140°03'0 0.0
2017-Dec-17 17:30N 35°35' E 140°03'0 0.0
2017-Dec-17 17:00N 35°35' E 140°03'0 0.0
2017-Dec-17 16:30N 35°35' E 140°03'0 0.0
2017-Dec-17 16:00N 35°35' E 140°03'0 0.0
2017-Dec-17 15:30N 35°35' E 140°03'0 0.0
2017-Dec-17 15:00N 35°35' E 140°03'0 0.0
2017-Dec-17 14:30N 35°35' E 140°03'0 0.0
2017-Dec-17 14:00N 35°35' E 140°03'0 0.0
2017-Dec-17 13:30N 35°35' E 140°03'0 0.0
2017-Dec-17 13:00N 35°35' E 140°03'0 0.1
2017-Dec-17 12:30N 35°35' E 140°03'2 3.4
2017-Dec-17 11:58N 35°36' E 140°05'0 0.0
2017-Dec-17 11:28N 35°36' E 140°05'0 0.0
2017-Dec-17 10:58N 35°36' E 140°05'0 0.0
2017-Dec-17 10:28N 35°36' E 140°05'0 0.0
2017-Dec-17 09:58N 35°36' E 140°05'0 0.0
2017-Dec-17 09:28N 35°36' E 140°05'0 0.0
2017-Dec-17 08:58N 35°36' E 140°05'0 0.0
2017-Dec-17 08:28N 35°36' E 140°05'0 0.0
2017-Dec-17 07:58N 35°36' E 140°05'0 0.0
2017-Dec-17 07:28N 35°36' E 140°05'0 0.0
2017-Dec-17 06:58N 35°36' E 140°05'0 0.0
2017-Dec-17 06:28N 35°36' E 140°05'1 1.2
2017-Dec-17 06:00N 35°36' E 140°04'1 1.7
2017-Dec-17 05:30N 35°35' E 140°03'0 0.0
2017-Dec-17 05:00N 35°35' E 140°03'0 0.1
2017-Dec-17 04:30N 35°35' E 140°03'0 0.1
2017-Dec-17 04:00N 35°35' E 140°03'0 0.1
2017-Dec-17 03:30N 35°35' E 140°03'0 0.1
2017-Dec-17 03:00N 35°35' E 140°03'0 0.0
2017-Dec-17 02:30N 35°35' E 140°03'0 0.0
2017-Dec-17 02:00N 35°35' E 140°03'0 0.0
2017-Dec-17 01:30N 35°35' E 140°03'0 0.0
2017-Dec-17 01:00N 35°35' E 140°03'0 0.0
2017-Dec-17 00:30N 35°35' E 140°03'0 0.0
2017-Dec-17 00:00N 35°35' E 140°03'0 0.0
2017-Dec-16 23:30N 35°35' E 140°03'2 3.5
2017-Dec-16 23:00N 35°35' E 140°01'713.1
2017-Dec-16 22:30N 35°31' E 139°55'612.6
2017-Dec-16 22:00N 35°26' E 139°49'612.3
2017-Dec-16 21:30N 35°21' E 139°45'611.5
2017-Dec-16 21:00N 35°16' E 139°47'612.6
2017-Dec-16 20:30N 35°09' E 139°45'713.1
2017-Dec-16 20:01N 35°04' E 139°41'714.1
2017-Dec-16 19:31N 34°59' E 139°34'714.7
2017-Dec-16 19:00N 34°54' E 139°28'1114.6
2017-Dec-16 18:16N 34°48' E 139°18'414.0
2017-Dec-16 18:00N 34°45' E 139°14'713.7
2017-Dec-16 17:30N 34°41' E 139°08'713.5
2017-Dec-16 17:00N 34°36' E 139°02'713.1
2017-Dec-16 16:30N 34°33' E 138°55'814.9
2017-Dec-16 15:58N 34°33' E 138°45'614.2
2017-Dec-16 15:30N 34°32' E 138°38'714.2
2017-Dec-16 15:00N 34°33' E 138°29'814.6
2017-Dec-16 14:29N 34°32' E 138°20'1015.4
2017-Dec-16 13:51N 34°32' E 138°08'514.6
2017-Dec-16 13:28N 34°32' E 138°01'3614.0
2017-Dec-16 10:53N 34°32' E 137°17'1513.5
2017-Dec-16 09:47N 34°34' E 136°59'814.0
2017-Dec-16 09:11N 34°39' E 136°51'313.7
2017-Dec-16 09:00N 34°41' E 136°49'714.0
2017-Dec-16 08:31N 34°48' E 136°46'713.7
2017-Dec-16 08:00N 34°54' E 136°43'5 9.5
2017-Dec-16 07:27N 34°58' E 136°39'0 0.0
2017-Dec-16 06:57N 34°58' E 136°39'0 0.0
2017-Dec-16 06:27N 34°58' E 136°39'0 0.0
2017-Dec-16 05:57N 34°58' E 136°39'0 0.0
2017-Dec-16 05:21N 34°58' E 136°39'0 0.0
2017-Dec-16 05:00N 34°58' E 136°39'0 0.0
2017-Dec-16 04:27N 34°58' E 136°39'0 0.0
2017-Dec-16 03:57N 34°58' E 136°39'0 0.0
2017-Dec-16 03:27N 34°58' E 136°39'0 0.0
2017-Dec-16 02:57N 34°58' E 136°39'0 0.0
2017-Dec-16 02:27N 34°58' E 136°39'0 0.0
2017-Dec-16 01:57N 34°58' E 136°39'0 0.0
2017-Dec-16 01:27N 34°58' E 136°39'0 0.0
2017-Dec-16 01:00N 34°58' E 136°39'0 0.0
2017-Dec-16 00:27N 34°58' E 136°39'0 0.0
2017-Dec-15 23:57N 34°58' E 136°39'0 0.0
2017-Dec-15 23:27N 34°58' E 136°39'0 0.1
2017-Dec-15 23:00N 34°58' E 136°39'1 1.9
2017-Dec-15 22:25N 34°58' E 136°40'0 0.0
2017-Dec-15 21:58N 34°58' E 136°40'0 0.0
2017-Dec-15 21:28N 34°58' E 136°40'0 0.0
2017-Dec-15 20:58N 34°58' E 136°40'0 0.0
2017-Dec-15 20:25N 34°58' E 136°40'0 0.0
2017-Dec-15 19:55N 34°58' E 136°40'0 0.0
2017-Dec-15 19:28N 34°58' E 136°40'0 0.0
2017-Dec-15 18:58N 34°58' E 136°40'0 0.1
2017-Dec-15 18:28N 34°58' E 136°40'3 6.1
2017-Dec-15 18:00N 34°55' E 136°42'714.4
2017-Dec-15 17:30N 34°49' E 136°46'714.5
2017-Dec-15 17:01N 34°43' E 136°50'714.6
2017-Dec-15 16:30N 34°37' E 136°56'1214.1
2017-Dec-15 15:38N 34°33' E 137°10'214.4
2017-Dec-15 15:30N 34°33' E 137°12'714.6
2017-Dec-15 15:00N 34°33' E 137°21'2914.3
2017-Dec-15 12:59N 34°33' E 137°56'713.7
2017-Dec-15 12:28N 34°33' E 138°05'713.1
2017-Dec-15 11:58N 34°33' E 138°13'613.4
2017-Dec-15 11:30N 34°32' E 138°21'713.6
2017-Dec-15 11:00N 34°33' E 138°29'612.6
2017-Dec-15 10:30N 34°33' E 138°36'712.4
2017-Dec-15 09:57N 34°33' E 138°45'613.4
2017-Dec-15 09:31N 34°33' E 138°52'612.1
2017-Dec-15 09:00N 34°34' E 138°59'714.0
2017-Dec-15 08:30N 34°39' E 139°05'714.3
2017-Dec-15 07:59N 34°44' E 139°12'714.0
2017-Dec-15 07:30N 34°49' E 139°18'714.2
2017-Dec-15 07:00N 34°54' E 139°24'713.7
2017-Dec-15 06:30N 34°58' E 139°30'714.0
2017-Dec-15 06:01N 35°03' E 139°37'714.7
2017-Dec-15 05:30N 35°08' E 139°43'713.8
2017-Dec-15 05:00N 35°14' E 139°46'612.7
2017-Dec-15 04:30N 35°20' E 139°43'713.5
2017-Dec-15 04:00N 35°27' E 139°45'6 3.8
2017-Dec-15 02:29N 35°32' E 139°48'0 0.0
2017-Dec-15 00:59N 35°32' E 139°48'0 0.0
2017-Dec-15 00:29N 35°32' E 139°48'2 0.4
2017-Dec-14 18:30N 35°31' E 139°50'0 0.0
2017-Dec-14 18:00N 35°31' E 139°50'0 0.1
2017-Dec-14 17:30N 35°31' E 139°50'0 0.1
2017-Dec-14 17:00N 35°31' E 139°50'0 0.0
2017-Dec-14 16:31N 35°31' E 139°50'0 0.0
2017-Dec-14 16:00N 35°31' E 139°50'0 0.1
2017-Dec-14 15:00N 35°31' E 139°50'0 0.0
2017-Dec-14 14:31N 35°31' E 139°50'0 0.0
2017-Dec-14 14:01N 35°31' E 139°50'0 0.0
2017-Dec-14 13:30N 35°31' E 139°50'0 0.0
2017-Dec-14 13:00N 35°31' E 139°50'0 0.0
2017-Dec-14 12:30N 35°31' E 139°50'0 0.1
2017-Dec-14 12:00N 35°31' E 139°50'0 0.0
2017-Dec-14 11:30N 35°31' E 139°50'0 0.0
2017-Dec-14 11:00N 35°31' E 139°50'2 3.4
2017-Dec-14 10:30N 35°31' E 139°52'713.5
2017-Dec-14 10:00N 35°33' E 140°00'4 7.2
2017-Dec-14 09:30N 35°33' E 140°05'0 0.0
2017-Dec-14 09:00N 35°33' E 140°05'0 0.0
2017-Dec-14 08:30N 35°33' E 140°05'0 0.0
2017-Dec-14 08:00N 35°33' E 140°05'0 0.0
2017-Dec-14 07:27N 35°33' E 140°05'0 0.0
2017-Dec-14 06:57N 35°33' E 140°05'0 0.0
2017-Dec-14 06:27N 35°33' E 140°05'0 0.0
2017-Dec-14 06:00N 35°33' E 140°05'0 0.0
2017-Dec-14 05:27N 35°33' E 140°05'0 0.0
2017-Dec-14 05:00N 35°33' E 140°05'0 0.0
2017-Dec-14 04:30N 35°33' E 140°05'0 0.0
2017-Dec-14 03:57N 35°33' E 140°05'0 0.1
2017-Dec-14 03:30N 35°33' E 140°05'4 8.2
2017-Dec-14 03:00N 35°33' E 139°60'714.3
2017-Dec-14 02:29N 35°31' E 139°51'2 4.0
2017-Dec-14 01:52N 35°32' E 139°48'0 0.0
2017-Dec-14 01:28N 35°32' E 139°48'0 0.0
2017-Dec-14 00:58N 35°32' E 139°48'0 0.0
2017-Dec-14 00:28N 35°32' E 139°48'0 0.0
2017-Dec-13 23:55N 35°32' E 139°48'0 0.0
2017-Dec-13 23:28N 35°32' E 139°48'0 0.0
2017-Dec-13 22:58N 35°32' E 139°48'0 0.2
2017-Dec-13 22:30N 35°32' E 139°48'2 3.9
2017-Dec-13 22:00N 35°31' E 139°50'0 0.3
2017-Dec-13 21:26N 35°31' E 139°50'0 0.0
2017-Dec-13 20:59N 35°31' E 139°50'0 0.0
2017-Dec-13 20:29N 35°31' E 139°50'0 0.0
2017-Dec-13 19:59N 35°31' E 139°50'0 0.0
2017-Dec-13 19:29N 35°31' E 139°50'0 0.0
2017-Dec-13 18:59N 35°31' E 139°50'0 0.0
2017-Dec-13 18:23N 35°31' E 139°50'0 0.0
2017-Dec-13 17:59N 35°31' E 139°50'0 0.0
2017-Dec-13 17:17N 35°31' E 139°50'0 0.0
2017-Dec-13 16:59N 35°31' E 139°50'0 0.0
2017-Dec-13 16:29N 35°31' E 139°50'0 0.0
2017-Dec-13 15:59N 35°31' E 139°50'0 0.0
2017-Dec-13 15:26N 35°31' E 139°50'0 0.0
2017-Dec-13 14:59N 35°31' E 139°50'0 0.0
2017-Dec-13 14:29N 35°31' E 139°50'0 0.0
2017-Dec-13 13:56N 35°31' E 139°50'0 0.0
2017-Dec-13 13:20N 35°31' E 139°50'0 0.2
2017-Dec-13 12:50N 35°31' E 139°50'3 8.8
2017-Dec-13 12:29N 35°31' E 139°54'613.5
2017-Dec-13 12:00N 35°33' E 140°02'2 4.6
2017-Dec-13 11:29N 35°33' E 140°05'0 0.0
2017-Dec-13 10:59N 35°33' E 140°05'0 0.0
2017-Dec-13 10:29N 35°33' E 140°05'0 0.0
2017-Dec-13 09:59N 35°33' E 140°05'0 0.0
2017-Dec-13 09:29N 35°33' E 140°05'0 0.0
2017-Dec-13 08:59N 35°33' E 140°05'0 0.0
2017-Dec-13 08:29N 35°33' E 140°05'0 0.0
2017-Dec-13 07:59N 35°33' E 140°05'0 0.0
2017-Dec-13 07:29N 35°33' E 140°05'0 0.0
2017-Dec-13 06:59N 35°33' E 140°05'0 0.0
2017-Dec-13 06:29N 35°33' E 140°05'0 0.0
2017-Dec-13 05:59N 35°33' E 140°05'1 1.6
2017-Dec-13 05:30N 35°33' E 140°04'3 5.0
2017-Dec-13 04:58N 35°36' E 140°05'0 0.0
2017-Dec-13 04:28N 35°36' E 140°05'0 0.0
2017-Dec-13 03:58N 35°36' E 140°05'0 0.0
2017-Dec-13 03:28N 35°36' E 140°05'0 0.0
2017-Dec-13 02:58N 35°36' E 140°05'0 0.0
2017-Dec-13 02:28N 35°36' E 140°05'0 0.0
2017-Dec-13 01:58N 35°36' E 140°05'0 0.0
2017-Dec-13 01:28N 35°36' E 140°05'0 0.0
2017-Dec-13 00:58N 35°36' E 140°05'0 0.0
2017-Dec-13 00:28N 35°36' E 140°05'0 0.0
2017-Dec-12 23:58N 35°36' E 140°05'0 0.0
2017-Dec-12 23:28N 35°36' E 140°05'1 3.1
2017-Dec-12 23:01N 35°35' E 140°03'0 0.2
2017-Dec-12 22:28N 35°35' E 140°03'0 0.0
2017-Dec-12 21:58N 35°35' E 140°03'0 0.0
2017-Dec-12 21:28N 35°35' E 140°03'0 0.0
2017-Dec-12 20:58N 35°35' E 140°03'0 0.0
2017-Dec-12 20:28N 35°35' E 140°03'0 0.0
2017-Dec-12 19:58N 35°35' E 140°03'0 0.0
2017-Dec-12 19:28N 35°35' E 140°03'0 0.0
2017-Dec-12 18:58N 35°35' E 140°03'0 0.0
2017-Dec-12 18:25N 35°35' E 140°03'0 0.0
2017-Dec-12 17:58N 35°35' E 140°03'0 0.0
2017-Dec-12 17:28N 35°35' E 140°03'0 0.0
2017-Dec-12 16:58N 35°35' E 140°03'0 0.1
2017-Dec-12 16:28N 35°35' E 140°03'0 0.0
2017-Dec-12 15:58N 35°35' E 140°03'0 0.0
2017-Dec-12 15:28N 35°35' E 140°03'0 0.0
2017-Dec-12 14:58N 35°35' E 140°03'0 0.0
2017-Dec-12 14:28N 35°35' E 140°03'0 0.0
2017-Dec-12 13:58N 35°35' E 140°03'0 0.0
2017-Dec-12 13:28N 35°35' E 140°03'0 0.0
2017-Dec-12 12:58N 35°35' E 140°03'0 0.1
2017-Dec-12 12:28N 35°35' E 140°03'2 4.2
2017-Dec-12 12:00N 35°33' E 140°03'2 0.2
2017-Dec-12 05:49N 35°32' E 140°03'1 3.1
2017-Dec-12 05:30N 35°33' E 140°03'3 5.2
2017-Dec-12 05:01N 35°35' E 140°02'0 0.2
2017-Dec-12 04:30N 35°35' E 140°02'0 0.1
2017-Dec-12 04:00N 35°35' E 140°02'0 0.0
2017-Dec-12 03:31N 35°35' E 140°02'0 0.0
2017-Dec-12 03:01N 35°35' E 140°02'0 0.0
2017-Dec-12 02:31N 35°35' E 140°02'0 0.0
2017-Dec-12 02:01N 35°35' E 140°02'0 0.0
2017-Dec-12 01:30N 35°35' E 140°02'0 0.0
2017-Dec-12 01:01N 35°35' E 140°02'0 0.0
2017-Dec-12 00:30N 35°35' E 140°02'0 0.0
2017-Dec-12 00:00N 35°35' E 140°02'0 0.0
2017-Dec-11 23:31N 35°35' E 140°02'0 0.0
2017-Dec-11 23:01N 35°35' E 140°02'0 0.0
2017-Dec-11 22:31N 35°35' E 140°02'0 0.0
2017-Dec-11 22:01N 35°35' E 140°02'0 0.0
2017-Dec-11 21:30N 35°35' E 140°02'0 0.0
2017-Dec-11 21:01N 35°35' E 140°02'0 0.0
2017-Dec-11 20:30N 35°35' E 140°02'0 0.0
2017-Dec-11 20:00N 35°35' E 140°02'0 0.0
2017-Dec-11 19:30N 35°35' E 140°02'0 0.0
2017-Dec-11 19:01N 35°35' E 140°02'0 0.0
2017-Dec-11 18:30N 35°35' E 140°02'0 0.0
2017-Dec-11 18:00N 35°35' E 140°02'0 0.0
2017-Dec-11 17:30N 35°35' E 140°02'0 0.0
2017-Dec-11 17:00N 35°35' E 140°02'0 0.0
2017-Dec-11 16:31N 35°35' E 140°02'0 0.0
2017-Dec-11 16:01N 35°35' E 140°02'0 0.0
2017-Dec-11 15:30N 35°35' E 140°02'0 0.0
2017-Dec-11 15:01N 35°35' E 140°02'0 0.0
2017-Dec-11 14:30N 35°35' E 140°02'0 0.0
2017-Dec-11 14:00N 35°35' E 140°02'0 0.0
2017-Dec-11 13:31N 35°35' E 140°02'0 0.0
2017-Dec-11 13:00N 35°35' E 140°02'0 0.0
2017-Dec-11 12:31N 35°35' E 140°02'0 0.0
2017-Dec-11 12:01N 35°35' E 140°02'0 0.0
2017-Dec-11 11:31N 35°35' E 140°02'0 0.0
2017-Dec-11 11:00N 35°35' E 140°02'0 0.0
2017-Dec-11 10:31N 35°35' E 140°02'0 0.0
2017-Dec-11 10:00N 35°35' E 140°02'0 0.0
2017-Dec-11 09:31N 35°35' E 140°02'0 0.1
2017-Dec-11 09:01N 35°35' E 140°02'0 0.1
2017-Dec-11 08:31N 35°35' E 140°02'0 0.0
2017-Dec-11 08:01N 35°35' E 140°02'0 0.1
2017-Dec-11 07:31N 35°35' E 140°02'0 0.0
2017-Dec-11 07:00N 35°35' E 140°02'0 0.1
2017-Dec-11 06:30N 35°35' E 140°02'0 0.1
2017-Dec-11 05:59N 35°35' E 140°02'0 0.1
2017-Dec-11 05:29N 35°35' E 140°02'0 0.1
2017-Dec-11 04:59N 35°35' E 140°02'0 0.2
2017-Dec-11 04:30N 35°35' E 140°02'2 3.6
2017-Dec-11 03:58N 35°36' E 140°05'0 0.0
2017-Dec-11 03:28N 35°36' E 140°05'0 0.0
2017-Dec-11 02:58N 35°36' E 140°05'0 0.0
2017-Dec-11 02:28N 35°36' E 140°05'0 0.0
2017-Dec-11 01:58N 35°36' E 140°05'0 0.0
2017-Dec-11 01:28N 35°36' E 140°05'0 0.0
2017-Dec-11 00:55N 35°36' E 140°05'0 0.0
2017-Dec-11 00:25N 35°36' E 140°05'0 0.0
2017-Dec-10 23:55N 35°36' E 140°05'0 0.0
2017-Dec-10 23:28N 35°36' E 140°05'0 0.0
2017-Dec-10 22:58N 35°36' E 140°05'0 0.0
2017-Dec-10 22:30N 35°36' E 140°05'2 4.0
2017-Dec-10 22:01N 35°35' E 140°02'4 8.6
2017-Dec-10 21:30N 35°33' E 139°58'0 0.0
2017-Dec-10 21:00N 35°33' E 139°58'0 0.1
2017-Dec-10 20:30N 35°33' E 139°58'0 0.0
2017-Dec-10 20:00N 35°33' E 139°58'0 0.1
2017-Dec-10 19:29N 35°33' E 139°58'0 0.0
2017-Dec-10 19:00N 35°33' E 139°58'0 0.0
2017-Dec-10 18:29N 35°33' E 139°58'0 0.0
2017-Dec-10 18:00N 35°33' E 139°58'0 0.0
2017-Dec-10 17:29N 35°33' E 139°58'0 0.0
2017-Dec-10 17:00N 35°33' E 139°58'0 0.0
2017-Dec-10 16:30N 35°33' E 139°58'0 0.0
2017-Dec-10 16:00N 35°33' E 139°58'0 0.0
2017-Dec-10 15:30N 35°33' E 139°58'0 0.0
2017-Dec-10 14:59N 35°33' E 139°58'0 0.0
2017-Dec-10 14:25N 35°33' E 139°58'0 0.0
2017-Dec-10 13:57N 35°33' E 139°58'0 0.0
2017-Dec-10 13:30N 35°33' E 139°58'0 0.0
2017-Dec-10 13:00N 35°33' E 139°58'0 0.0
2017-Dec-10 12:30N 35°33' E 139°58'0 0.0
2017-Dec-10 11:59N 35°33' E 139°58'0 0.1
2017-Dec-10 11:29N 35°33' E 139°58'4 8.2
2017-Dec-10 11:00N 35°32' E 140°02'1 0.2
2017-Dec-10 04:53N 35°32' E 140°03'2 5.6
2017-Dec-10 04:31N 35°34' E 140°04'2 3.8
2017-Dec-10 03:59N 35°36' E 140°05'0 0.0
2017-Dec-10 03:29N 35°36' E 140°05'0 0.0
2017-Dec-10 02:59N 35°36' E 140°05'0 0.0
2017-Dec-10 02:29N 35°36' E 140°05'0 0.0
2017-Dec-10 01:59N 35°36' E 140°05'0 0.0
2017-Dec-10 01:29N 35°36' E 140°05'0 0.0
2017-Dec-10 00:59N 35°36' E 140°05'0 0.0
2017-Dec-10 00:29N 35°36' E 140°05'0 0.0
2017-Dec-09 23:59N 35°36' E 140°05'0 0.0
2017-Dec-09 23:26N 35°36' E 140°05'0 0.0
2017-Dec-09 22:59N 35°36' E 140°05'0 0.0
2017-Dec-09 22:30N 35°36' E 140°05'1 2.8
2017-Dec-09 22:00N 35°35' E 140°03'0 0.2
2017-Dec-09 21:29N 35°35' E 140°03'0 0.0
2017-Dec-09 21:00N 35°35' E 140°03'0 0.0
2017-Dec-09 20:30N 35°35' E 140°03'0 0.0
2017-Dec-09 20:00N 35°35' E 140°03'0 0.0
2017-Dec-09 19:30N 35°35' E 140°03'0 0.0
2017-Dec-09 19:00N 35°35' E 140°03'0 0.0
2017-Dec-09 18:30N 35°35' E 140°03'0 0.0
2017-Dec-09 18:00N 35°35' E 140°03'0 0.0
2017-Dec-09 17:30N 35°35' E 140°03'0 0.0
2017-Dec-09 17:00N 35°35' E 140°03'0 0.0
2017-Dec-09 16:30N 35°35' E 140°03'0 0.1
2017-Dec-09 16:00N 35°35' E 140°03'0 0.0
2017-Dec-09 15:30N 35°35' E 140°03'0 0.1
2017-Dec-09 15:00N 35°35' E 140°03'0 0.1
2017-Dec-09 14:30N 35°35' E 140°03'0 0.0
2017-Dec-09 14:00N 35°35' E 140°03'0 0.0
2017-Dec-09 13:30N 35°35' E 140°03'0 0.0
2017-Dec-09 13:00N 35°35' E 140°03'0 0.0
2017-Dec-09 12:30N 35°35' E 140°03'0 0.0
2017-Dec-09 12:00N 35°35' E 140°03'0 0.0
2017-Dec-09 11:30N 35°35' E 140°03'0 0.0
2017-Dec-09 11:00N 35°35' E 140°03'0 0.0
2017-Dec-09 10:30N 35°35' E 140°03'0 0.1
2017-Dec-09 10:00N 35°35' E 140°03'3 0.5
2017-Dec-09 03:34N 35°32' E 140°03'0 0.1
2017-Dec-09 03:30N 35°32' E 140°03'1 2.2
2017-Dec-09 03:01N 35°32' E 140°02'0 0.3
2017-Dec-09 02:31N 35°32' E 140°02'0 0.0
2017-Dec-09 02:00N 35°32' E 140°02'0 0.0
2017-Dec-09 01:27N 35°32' E 140°02'0 0.0
2017-Dec-09 01:00N 35°32' E 140°02'0 0.0
2017-Dec-09 00:27N 35°32' E 140°02'0 0.0
2017-Dec-08 23:57N 35°32' E 140°02'0 0.0
2017-Dec-08 23:26N 35°32' E 140°02'0 0.0
2017-Dec-08 22:57N 35°32' E 140°02'0 0.0
2017-Dec-08 22:27N 35°32' E 140°02'0 0.0
2017-Dec-08 21:57N 35°32' E 140°02'1 1.2
2017-Dec-08 21:30N 35°32' E 140°02'5 8.6
2017-Dec-08 20:58N 35°36' E 140°06'0 0.0
2017-Dec-08 20:28N 35°36' E 140°06'0 0.0
2017-Dec-08 19:58N 35°36' E 140°06'0 0.0
2017-Dec-08 19:28N 35°36' E 140°06'0 0.0
2017-Dec-08 18:58N 35°36' E 140°06'0 0.0
2017-Dec-08 18:28N 35°36' E 140°06'0 0.0
2017-Dec-08 17:58N 35°36' E 140°06'0 0.0
2017-Dec-08 17:28N 35°36' E 140°06'0 0.0
2017-Dec-08 16:55N 35°36' E 140°06'0 0.0
2017-Dec-08 16:28N 35°36' E 140°06'0 0.0
2017-Dec-08 15:58N 35°36' E 140°06'0 0.0
2017-Dec-08 15:28N 35°36' E 140°06'0 0.0
2017-Dec-08 14:58N 35°36' E 140°06'0 0.0
2017-Dec-08 14:28N 35°36' E 140°06'0 0.0
2017-Dec-08 13:58N 35°36' E 140°06'0 0.0
2017-Dec-08 13:28N 35°36' E 140°06'0 0.0
2017-Dec-08 12:58N 35°36' E 140°06'0 0.0
2017-Dec-08 12:28N 35°36' E 140°06'0 0.0
2017-Dec-08 11:58N 35°36' E 140°06'0 0.0
2017-Dec-08 11:28N 35°36' E 140°06'0 0.0
2017-Dec-08 10:58N 35°36' E 140°06'  

Dump ship's entire track history